Time;durP1;ratioP1;P1;durP2;ratioP2;P2;SDS_P1;SDS_P2;PMS_P1;PMS_P2;Temp;Humidity;BMP_temperature;BMP_pressure;BME280_temperature;BME280_humidity;BME280_pressure;Samples;Min_cycle;Max_cycle;Signal;HPM_P1;HPM_P2
2024/04/17 00:00:31;;;;;;;2.17;1.42;;;;;;;5.85;100.00;97982.84;5405367;26;20008;-52
2024/04/17 00:02:56;;;;;;;1.33;1.00;;;;;;;5.77;100.00;97982.16;5394378;26;20006;-51
2024/04/17 00:05:22;;;;;;;0.55;0.40;;;;;;;5.61;100.00;97983.25;5401709;26;20010;-51
2024/04/17 00:07:47;;;;;;;0.63;0.63;;;;;;;5.47;100.00;97983.09;5407654;26;20003;-52
2024/04/17 00:10:13;;;;;;;0.63;0.30;;;;;;;5.37;100.00;97987.97;5403989;26;20415;-52
2024/04/17 00:12:39;;;;;;;0.85;0.40;;;;;;;5.27;100.00;97980.22;5399522;26;19996;-52
2024/04/17 00:15:04;;;;;;;0.32;0.30;;;;;;;5.19;100.00;97971.47;5400788;26;19999;-52
2024/04/17 00:17:30;;;;;;;0.40;0.35;;;;;;;5.17;100.00;97974.34;5395990;26;20018;-52
2024/04/17 00:19:55;;;;;;;1.55;0.30;;;;;;;5.04;100.00;97966.97;5409606;26;20080;-52
2024/04/17 00:22:21;;;;;;;0.80;0.50;;;;;;;5.02;100.00;97971.69;5398310;26;20011;-52
2024/04/17 00:24:46;;;;;;;0.52;0.30;;;;;;;4.97;100.00;97973.28;5396767;26;20011;-52
2024/04/17 00:27:12;;;;;;;0.40;0.30;;;;;;;4.90;100.00;97980.41;5398475;26;20007;-52
2024/04/17 00:29:37;;;;;;;2.17;0.50;;;;;;;4.89;100.00;97966.16;5401986;26;19996;-52
2024/04/17 00:32:05;;;;;;;1.23;0.50;;;;;;;4.86;100.00;97973.78;5402030;26;20043;-52
2024/04/17 00:34:30;;;;;;;1.20;0.55;;;;;;;4.76;100.00;97958.78;5399472;26;20024;-52
2024/04/17 00:36:56;;;;;;;0.47;0.47;;;;;;;4.88;100.00;97982.47;5400278;26;20008;-52
2024/04/17 00:39:22;;;;;;;2.45;0.80;;;;;;;4.99;100.00;97982.78;5405909;26;20014;-52
2024/04/17 00:41:48;;;;;;;0.95;0.60;;;;;;;5.01;100.00;97986.13;5409140;26;20046;-52
2024/04/17 00:44:14;;;;;;;0.80;0.50;;;;;;;5.12;100.00;97984.81;5403270;26;20014;-52
2024/04/17 00:46:40;;;;;;;1.02;0.63;;;;;;;5.10;100.00;97970.75;5403305;26;20012;-52
2024/04/17 00:49:06;;;;;;;0.77;0.50;;;;;;;5.03;100.00;97980.56;5402953;26;20019;-52
2024/04/17 00:51:33;;;;;;;0.65;0.50;;;;;;;5.00;100.00;97973.75;5414751;26;20000;-53
2024/04/17 00:53:59;;;;;;;0.85;0.55;;;;;;;4.95;100.00;97972.63;5405370;26;20007;-52
2024/04/17 00:56:25;;;;;;;0.80;0.63;;;;;;;4.97;100.00;97982.16;5405453;26;20000;-52
2024/04/17 00:58:51;;;;;;;0.57;0.50;;;;;;;4.99;100.00;97979.28;5399300;26;20015;-52
2024/04/17 01:01:17;;;;;;;0.98;0.70;;;;;;;4.82;100.00;97978.66;5407018;26;20440;-52
2024/04/17 01:03:42;;;;;;;0.95;0.82;;;;;;;4.78;100.00;97966.66;5392187;26;20080;-52
2024/04/17 01:06:08;;;;;;;1.58;1.20;;;;;;;4.77;100.00;97965.00;5398854;26;20043;-51
2024/04/17 01:08:34;;;;;;;2.28;1.10;;;;;;;4.83;100.00;97973.13;5404445;26;20022;-52
2024/04/17 01:11:01;;;;;;;1.63;1.15;;;;;;;4.82;100.00;97984.00;5397359;26;20000;-52
2024/04/17 01:13:27;;;;;;;2.30;1.20;;;;;;;4.87;100.00;97970.88;5402904;26;20001;-51
2024/04/17 01:15:52;;;;;;;1.70;1.30;;;;;;;4.86;100.00;97969.22;5405750;26;19995;-51
2024/04/17 01:18:19;;;;;;;2.15;1.35;;;;;;;4.93;100.00;97963.97;5404951;26;20014;-51
2024/04/17 01:20:44;;;;;;;1.80;1.20;;;;;;;4.89;100.00;97970.72;5409870;26;20122;-51
2024/04/17 01:23:10;;;;;;;1.00;0.77;;;;;;;4.94;100.00;97970.97;5406852;26;20000;-51
2024/04/17 01:25:35;;;;;;;0.85;0.60;;;;;;;4.91;100.00;97971.34;5402920;26;20008;-51
2024/04/17 01:28:01;;;;;;;1.42;1.00;;;;;;;4.90;100.00;97959.81;5402732;26;20033;-51
2024/04/17 01:30:26;;;;;;;1.17;0.60;;;;;;;4.94;100.00;97974.47;5408914;26;20007;-52
2024/04/17 01:32:52;;;;;;;2.35;0.60;;;;;;;4.95;100.00;97968.13;5393777;26;20022;-51
2024/04/17 01:35:17;;;;;;;1.00;0.60;;;;;;;4.98;100.00;97973.09;5409544;26;20006;-51
2024/04/17 01:37:43;;;;;;;0.63;0.57;;;;;;;4.93;100.00;97964.78;5400955;26;20051;-51
2024/04/17 01:40:09;;;;;;;0.73;0.68;;;;;;;4.93;100.00;97959.44;5413458;26;20039;-51
2024/04/17 01:42:34;;;;;;;1.25;0.63;;;;;;;4.96;100.00;97974.31;5408003;26;20331;-51
2024/04/17 01:45:00;;;;;;;0.80;0.57;;;;;;;4.92;100.00;97973.00;5405504;26;19995;-51
2024/04/17 01:47:25;;;;;;;1.60;0.77;;;;;;;4.92;100.00;97968.47;5405269;26;20003;-51
2024/04/17 01:49:51;;;;;;;1.98;0.60;;;;;;;4.98;100.00;97966.91;5406807;26;20045;-51
2024/04/17 01:52:16;;;;;;;0.68;0.60;;;;;;;4.98;100.00;97975.78;5410019;26;20004;-52
2024/04/17 01:54:41;;;;;;;1.83;0.90;;;;;;;4.96;100.00;97963.59;5402974;26;20004;-52
2024/04/17 01:57:07;;;;;;;2.05;1.00;;;;;;;5.08;100.00;97972.78;5370412;26;20077;-52
2024/04/17 01:59:32;;;;;;;3.92;1.52;;;;;;;5.05;100.00;97979.34;5401569;26;20003;-52
2024/04/17 02:01:58;;;;;;;4.65;1.58;;;;;;;5.10;100.00;97976.13;5413636;26;19996;-52
2024/04/17 02:04:23;;;;;;;3.45;2.00;;;;;;;5.14;100.00;97979.25;5406358;26;20072;-52
2024/04/17 02:06:49;;;;;;;3.72;1.92;;;;;;;5.10;100.00;97983.31;5405464;26;20019;-52
2024/04/17 02:09:15;;;;;;;2.42;1.63;;;;;;;5.01;100.00;97977.25;5409119;26;20010;-52
2024/04/17 02:11:40;;;;;;;3.35;2.22;;;;;;;5.03;100.00;97983.22;5405335;26;20000;-52
2024/04/17 02:14:05;;;;;;;2.92;1.85;;;;;;;5.07;100.00;97984.53;5398329;26;19999;-52
2024/04/17 02:16:31;;;;;;;2.53;1.67;;;;;;;5.06;100.00;97980.19;5406346;26;20004;-52
2024/04/17 02:18:56;;;;;;;2.75;1.60;;;;;;;5.03;100.00;97981.41;5404338;26;20000;-52
2024/04/17 02:21:21;;;;;;;2.78;1.63;;;;;;;5.18;100.00;97977.84;5411410;26;20000;-52
2024/04/17 02:23:47;;;;;;;2.30;1.30;;;;;;;5.13;100.00;97977.59;5399808;26;19996;-52
2024/04/17 02:26:13;;;;;;;2.40;1.58;;;;;;;5.03;100.00;97978.72;5400125;26;20073;-52
2024/04/17 02:28:38;;;;;;;3.53;1.40;;;;;;;4.95;100.00;97981.53;5400001;26;20003;-52
2024/04/17 02:31:04;;;;;;;2.17;1.48;;;;;;;5.00;100.00;97979.13;5403781;26;20140;-52
2024/04/17 02:33:30;;;;;;;2.15;1.40;;;;;;;5.00;100.00;97984.47;5397522;26;19996;-52
2024/04/17 02:35:55;;;;;;;3.42;2.03;;;;;;;4.99;100.00;97982.78;5403356;26;19999;-52
2024/04/17 02:38:20;;;;;;;2.92;2.00;;;;;;;4.98;100.00;97989.19;5402121;26;19999;-52
2024/04/17 02:40:46;;;;;;;3.20;1.95;;;;;;;5.00;100.00;97987.16;5399714;26;19995;-52
2024/04/17 02:43:11;;;;;;;4.30;1.98;;;;;;;5.05;100.00;97990.06;5414273;26;20014;-52
2024/04/17 02:45:36;;;;;;;3.90;2.50;;;;;;;5.17;100.00;97985.06;5408989;26;20014;-52
2024/04/17 02:48:02;;;;;;;3.85;2.50;;;;;;;5.10;100.00;97980.66;5401877;26;20011;-52
2024/04/17 02:50:28;;;;;;;4.07;2.70;;;;;;;5.02;100.00;97974.38;5406804;26;20000;-52
2024/04/17 02:52:53;;;;;;;7.20;2.92;;;;;;;5.02;100.00;97984.25;5407864;26;20024;-52
2024/04/17 02:55:18;;;;;;;3.65;2.60;;;;;;;5.12;100.00;97986.66;5405100;26;20004;-52
2024/04/17 02:57:44;;;;;;;3.85;2.80;;;;;;;5.14;100.00;97990.00;5399607;26;20006;-52
2024/04/17 03:00:10;;;;;;;3.88;3.00;;;;;;;5.15;100.00;97989.78;5408910;26;20011;-52
2024/04/17 03:02:36;;;;;;;4.68;3.13;;;;;;;5.10;100.00;97992.19;5409531;26;20014;-52
2024/04/17 03:05:01;;;;;;;3.53;2.15;;;;;;;5.12;100.00;97992.03;5393943;26;20019;-52
2024/04/17 03:07:26;;;;;;;4.13;2.47;;;;;;;5.08;100.00;97988.88;5403189;26;19999;-52
2024/04/17 03:09:52;;;;;;;5.07;3.13;;;;;;;5.12;100.00;97989.34;5396995;26;20000;-52
2024/04/17 03:12:18;;;;;;;5.22;2.83;;;;;;;5.14;100.00;98000.72;5396842;26;20007;-52
2024/04/17 03:14:43;;;;;;;5.85;3.47;;;;;;;5.21;100.00;97993.56;5397601;26;20022;-52
2024/04/17 03:17:09;;;;;;;4.75;3.20;;;;;;;5.18;100.00;98004.66;5378312;26;20447;-52
2024/04/17 03:19:34;;;;;;;4.45;2.95;;;;;;;5.09;100.00;98005.81;5371146;26;20364;-52
2024/04/17 03:22:00;;;;;;;6.70;3.38;;;;;;;4.98;100.00;97999.91;5406123;26;20007;-52
2024/04/17 03:24:25;;;;;;;5.70;3.22;;;;;;;4.97;100.00;97990.19;5402893;26;20016;-52
2024/04/17 03:26:51;;;;;;;5.68;3.55;;;;;;;4.97;100.00;97997.41;5412043;26;20011;-52
2024/04/17 03:29:16;;;;;;;5.57;3.42;;;;;;;4.88;100.00;97994.00;5397956;26;20004;-52
2024/04/17 03:31:41;;;;;;;5.85;3.72;;;;;;;4.89;100.00;98000.19;5396697;26;20328;-52
2024/04/17 03:34:07;;;;;;;5.38;3.75;;;;;;;4.82;100.00;98010.81;5404782;26;20828;-52
2024/04/17 03:36:32;;;;;;;6.28;3.45;;;;;;;4.83;100.00;98007.13;5416882;26;19995;-52
2024/04/17 03:38:58;;;;;;;6.70;3.85;;;;;;;4.77;100.00;98013.25;5403385;26;20000;-52
2024/04/17 03:41:23;;;;;;;8.23;4.35;;;;;;;4.78;100.00;98017.56;5411241;26;20015;-52
2024/04/17 03:43:50;;;;;;;5.38;3.80;;;;;;;4.77;100.00;98022.13;5398314;26;20077;-52
2024/04/17 03:46:15;;;;;;;7.00;4.68;;;;;;;4.82;100.00;98016.16;5404468;26;20031;-52
2024/04/17 03:48:41;;;;;;;7.03;4.63;;;;;;;4.87;100.00;98029.03;5398944;26;20010;-52
2024/04/17 03:51:06;;;;;;;9.77;5.10;;;;;;;4.84;100.00;98024.88;5411135;26;20027;-53
2024/04/17 03:53:31;;;;;;;7.57;4.57;;;;;;;4.81;100.00;98027.91;5407508;26;20003;-52
2024/04/17 03:55:57;;;;;;;7.47;4.72;;;;;;;4.80;100.00;98020.91;5409923;26;20077;-52
2024/04/17 03:58:22;;;;;;;8.15;5.03;;;;;;;4.79;100.00;98029.94;5398433;26;20011;-52
2024/04/17 04:00:48;;;;;;;11.38;5.53;;;;;;;4.78;100.00;98015.72;5398578;26;19997;-52
2024/04/17 04:03:13;;;;;;;8.57;5.20;;;;;;;4.81;100.00;98030.59;5396521;26;20010;-53
2024/04/17 04:05:45;;;;;;;9.45;5.53;;;;;;;4.80;100.00;98020.91;5400162;26;20008;-52
2024/04/17 04:08:11;;;;;;;8.27;5.05;;;;;;;4.84;100.00;98019.50;5403043;26;20011;-53
2024/04/17 04:10:36;;;;;;;7.03;4.43;;;;;;;4.93;100.00;98034.47;5408462;26;19991;-52
2024/04/17 04:13:02;;;;;;;8.30;4.40;;;;;;;4.98;100.00;98040.13;5397091;26;19996;-53
2024/04/17 04:15:27;;;;;;;9.27;4.75;;;;;;;4.95;100.00;98032.44;5407629;26;20076;-52
2024/04/17 04:17:53;;;;;;;12.68;5.93;;;;;;;4.93;100.00;98037.16;5401259;26;20011;-52
2024/04/17 04:20:18;;;;;;;8.98;5.15;;;;;;;4.91;100.00;98035.69;5408048;26;20107;-52
2024/04/17 04:22:44;;;;;;;9.25;5.38;;;;;;;4.94;100.00;98043.34;5412331;26;20004;-52
2024/04/17 04:25:09;;;;;;;11.27;6.18;;;;;;;4.92;100.00;98040.00;5401305;26;20007;-52
2024/04/17 04:27:34;;;;;;;10.23;5.50;;;;;;;4.95;100.00;98036.97;5398559;26;19996;-52
2024/04/17 04:30:00;;;;;;;8.63;4.90;;;;;;;4.97;100.00;98046.47;5403366;26;20460;-52
2024/04/17 04:32:26;;;;;;;10.15;5.60;;;;;;;5.07;100.00;98034.66;5396375;26;19999;-52
2024/04/17 04:34:51;;;;;;;12.07;5.72;;;;;;;5.07;100.00;98040.00;5393563;26;20008;-52
2024/04/17 04:37:16;;;;;;;8.30;5.47;;;;;;;5.14;100.00;98046.28;5411270;26;19999;-52
2024/04/17 04:39:42;;;;;;;8.48;5.35;;;;;;;5.10;100.00;98048.50;5400066;26;20076;-52
2024/04/17 04:42:07;;;;;;;9.35;5.15;;;;;;;5.09;100.00;98049.53;5410044;26;20004;-53
2024/04/17 04:44:33;;;;;;;10.52;6.10;;;;;;;5.10;100.00;98047.69;5394396;26;20000;-53
2024/04/17 04:47:01;;;;;;;10.32;6.03;;;;;;;5.15;100.00;98051.44;5394529;26;20004;-53
2024/04/17 04:49:26;;;;;;;11.20;6.30;;;;;;;5.11;100.00;98063.59;5398019;26;19996;-53
2024/04/17 04:51:52;;;;;;;11.15;6.47;;;;;;;5.12;100.00;98054.50;5406739;26;20019;-53
2024/04/17 04:54:17;;;;;;;11.02;6.00;;;;;;;5.11;100.00;98063.59;5397477;26;20003;-53
2024/04/17 04:56:43;;;;;;;11.15;6.45;;;;;;;5.15;100.00;98054.13;5412019;26;20299;-53
2024/04/17 04:59:09;;;;;;;12.07;7.35;;;;;;;5.21;100.00;98057.91;5410274;26;20028;-53
2024/04/17 05:01:35;;;;;;;12.50;6.95;;;;;;;5.24;100.00;98066.44;5402593;26;20014;-53
2024/04/17 05:04:00;;;;;;;11.43;7.05;;;;;;;5.20;100.00;98059.75;5405869;26;20007;-53
2024/04/17 05:06:26;;;;;;;10.30;6.60;;;;;;;5.31;100.00;98061.13;5403741;26;19999;-53
2024/04/17 05:08:51;;;;;;;11.88;6.20;;;;;;;5.32;100.00;98065.50;5387922;26;22165;-53
2024/04/17 05:11:17;;;;;;;13.25;7.50;;;;;;;5.38;100.00;98067.41;5378348;26;20363;-53
2024/04/17 05:13:42;;;;;;;11.73;7.53;;;;;;;5.38;100.00;98067.41;5388976;26;20012;-53
2024/04/17 05:16:08;;;;;;;12.95;7.88;;;;;;;5.39;100.00;98054.81;5403400;26;20004;-53
2024/04/17 05:18:33;;;;;;;13.82;8.15;;;;;;;5.43;100.00;98062.31;5396295;26;19996;-53
2024/04/17 05:20:58;;;;;;;16.00;8.75;;;;;;;5.48;100.00;98069.81;5396826;26;20012;-53
2024/04/17 05:23:24;;;;;;;14.65;8.02;;;;;;;5.48;100.00;98069.81;5402151;26;20077;-53
2024/04/17 05:25:49;;;;;;;13.35;7.97;;;;;;;5.43;100.00;98072.22;5406921;26;20516;-53
2024/04/17 05:28:14;;;;;;;22.17;8.88;;;;;;;5.42;100.00;98065.19;5405375;26;20476;-53
2024/04/17 05:30:40;;;;;;;18.02;8.80;;;;;;;5.42;100.00;98076.75;5401442;26;20008;-53
2024/04/17 05:33:06;;;;;;;15.15;9.52;;;;;;;5.54;100.00;98074.41;5404943;26;20026;-53
2024/04/17 05:35:31;;;;;;;19.45;9.73;;;;;;;5.66;100.00;98078.28;5404049;26;20322;-53
2024/04/17 05:37:56;;;;;;;16.63;9.77;;;;;;;5.56;100.00;98060.81;5397078;26;19997;-53
2024/04/17 05:40:22;;;;;;;16.45;8.93;;;;;;;5.84;100.00;98071.63;5366441;26;20019;-53
2024/04/17 05:42:47;;;;;;;14.85;8.35;;;;;;;5.88;100.00;98076.41;5405373;26;20119;-54
2024/04/17 05:45:12;;;;;;;11.77;7.35;;;;;;;5.97;100.00;98071.78;5406694;26;20003;-53
2024/04/17 05:47:38;;;;;;;12.70;7.78;;;;;;;6.03;100.00;98072.88;5408495;26;19999;-53
2024/04/17 05:50:03;;;;;;;13.55;8.15;;;;;;;6.15;100.00;98076.69;5392661;26;20010;-54
2024/04/17 05:52:29;;;;;;;13.15;7.15;;;;;;;6.22;100.00;98082.97;5412870;26;20004;-54
2024/04/17 05:54:54;;;;;;;13.82;6.93;;;;;;;6.29;100.00;98066.91;5398094;26;20000;-53
2024/04/17 05:57:20;;;;;;;10.02;6.28;;;;;;;6.34;100.00;98067.13;5414589;26;20003;-53
2024/04/17 05:59:45;;;;;;;10.70;6.82;;;;;;;6.34;100.00;98078.75;5405204;26;20023;-53
2024/04/17 06:02:10;;;;;;;9.95;6.00;;;;;;;6.37;100.00;98080.22;5411024;26;20012;-53
2024/04/17 06:04:37;;;;;;;12.43;6.13;;;;;;;6.37;100.00;98064.09;5370768;26;20021;-54
2024/04/17 06:07:03;;;;;;;10.30;6.20;;;;;;;6.46;100.00;98078.19;5396307;26;20454;-54
2024/04/17 06:09:28;;;;;;;14.82;6.38;;;;;;;6.60;100.00;98079.94;5403066;26;19999;-52
2024/04/17 06:11:54;;;;;;;9.88;6.00;;;;;;;6.66;100.00;98084.56;5408082;26;19995;-53
2024/04/17 06:14:19;;;;;;;12.05;5.60;;;;;;;6.60;100.00;98077.25;5404721;26;20004;-52
2024/04/17 06:16:44;;;;;;;8.77;5.53;;;;;;;6.58;100.00;98076.66;5408138;26;20324;-53
2024/04/17 06:19:11;;;;;;;10.27;5.72;;;;;;;6.51;100.00;98081.97;5402097;26;19996;-53
2024/04/17 06:21:36;;;;;;;9.10;5.32;;;;;;;6.53;100.00;98089.84;5411037;26;20336;-53
2024/04/17 06:24:03;;;;;;;9.38;5.32;;;;;;;6.52;100.00;98088.16;5399716;26;20046;-53
2024/04/17 06:26:28;;;;;;;7.90;4.90;;;;;;;6.51;100.00;98083.81;5396187;26;20003;-53
2024/04/17 06:28:55;;;;;;;7.75;4.60;;;;;;;6.68;100.00;98087.88;5407573;26;20003;-53
2024/04/17 06:31:21;;;;;;;11.05;4.97;;;;;;;6.75;100.00;98094.13;5401930;26;20014;-53
2024/04/17 06:33:46;;;;;;;6.80;3.97;;;;;;;6.83;100.00;98093.13;5406669;26;20851;-53
2024/04/17 06:36:12;;;;;;;6.57;4.15;;;;;;;6.94;100.00;98089.94;5403316;26;20343;-53
2024/04/17 06:38:37;;;;;;;7.35;4.55;;;;;;;7.12;100.00;98094.75;5405204;26;20032;-54
2024/04/17 06:41:04;;;;;;;7.18;4.43;;;;;;;7.36;100.00;98096.16;5396395;26;20000;-53
2024/04/17 06:43:29;;;;;;;6.80;4.18;;;;;;;7.65;100.00;98080.69;5409511;26;19999;-53
2024/04/17 06:45:55;;;;;;;5.45;3.95;;;;;;;7.99;100.00;98092.38;5403518;26;20512;-53
2024/04/17 06:48:20;;;;;;;8.85;4.75;;;;;;;8.18;100.00;98082.69;5409715;26;19991;-53
2024/04/17 06:50:45;;;;;;;5.78;3.90;;;;;;;8.28;100.00;98077.75;5400178;26;20010;-52
2024/04/17 06:53:11;;;;;;;7.88;3.40;;;;;;;8.40;100.00;98081.47;5405302;26;20000;-53
2024/04/17 06:55:37;;;;;;;4.95;3.17;;;;;;;8.46;100.00;98074.44;5401335;26;20007;-53
2024/04/17 06:58:03;;;;;;;4.95;3.30;;;;;;;8.59;100.00;98079.00;5397760;26;20045;-53
2024/04/17 07:00:32;;;;;;;4.30;2.58;;;;;;;8.60;100.00;98076.09;5394283;26;20359;-53
2024/04/17 07:02:58;;;;;;;5.10;2.20;;;;;;;8.62;100.00;98082.13;5395884;26;20124;-53
2024/04/17 07:05:24;;;;;;;3.53;2.45;;;;;;;8.48;100.00;98081.28;5369182;26;20007;-49
2024/04/17 07:07:49;;;;;;;3.75;2.55;;;;;;;8.35;100.00;98078.56;5407380;26;20006;-51
2024/04/17 07:10:15;;;;;;;4.88;2.60;;;;;;;8.35;100.00;98078.56;5405657;26;20008;-53
2024/04/17 07:12:41;;;;;;;6.82;3.08;;;;;;;8.42;100.00;98081.28;5405335;26;20450;-53
2024/04/17 07:15:07;;;;;;;5.00;2.70;;;;;;;8.42;100.00;98087.50;5389699;26;20448;-52
2024/04/17 07:17:32;;;;;;;4.00;2.50;;;;;;;8.53;100.00;98083.34;5372562;26;20010;-53
2024/04/17 07:19:57;;;;;;;5.00;3.08;;;;;;;8.61;100.00;98082.31;5390644;26;20003;-53
2024/04/17 07:22:23;;;;;;;4.00;3.05;;;;;;;8.98;100.00;98078.94;5403726;26;20002;-53
2024/04/17 07:24:48;;;;;;;4.68;3.10;;;;;;;8.90;100.00;98075.63;5396468;26;20006;-53
2024/04/17 07:27:14;;;;;;;7.43;3.78;;;;;;;8.85;100.00;98073.56;5396259;26;19996;-54
2024/04/17 07:29:39;;;;;;;6.40;4.13;;;;;;;8.65;100.00;98067.41;5395309;26;20011;-53
2024/04/17 07:32:05;;;;;;;5.85;3.55;;;;;;;8.55;100.00;98083.97;5401585;26;20074;-54
2024/04/17 07:34:30;;;;;;;6.97;4.50;;;;;;;8.45;100.00;98084.38;5397840;26;20045;-53
2024/04/17 07:36:56;;;;;;;8.45;4.25;;;;;;;8.47;100.00;98089.59;5395326;26;20074;-53
2024/04/17 07:39:22;;;;;;;6.53;4.25;;;;;;;8.52;100.00;98079.84;5396692;26;20000;-53
2024/04/17 07:41:48;;;;;;;6.47;4.05;;;;;;;8.66;100.00;98098.69;5400882;26;20046;-53
2024/04/17 07:44:13;;;;;;;6.88;4.70;;;;;;;8.92;100.00;98085.19;5398054;26;20449;-53
2024/04/17 07:46:39;;;;;;;7.43;4.47;;;;;;;9.78;100.00;98084.06;5401025;26;20073;-54
2024/04/17 07:49:04;;;;;;;6.53;4.15;;;;;;;9.85;100.00;98071.34;5402076;26;20023;-54
2024/04/17 07:51:31;;;;;;;8.27;4.47;;;;;;;10.09;100.00;98077.03;5390877;26;20000;-54
2024/04/17 07:53:56;;;;;;;9.27;5.25;;;;;;;9.85;100.00;98076.75;5406714;26;20115;-54
2024/04/17 07:56:21;;;;;;;7.63;4.45;;;;;;;9.53;100.00;98078.53;5410179;26;20013;-54
2024/04/17 07:58:47;;;;;;;7.50;5.38;;;;;;;9.19;100.00;98087.81;5394066;26;20027;-54
2024/04/17 08:01:12;;;;;;;7.80;4.88;;;;;;;9.07;100.00;98081.44;5411614;26;20019;-54
2024/04/17 08:03:37;;;;;;;7.95;5.35;;;;;;;8.75;100.00;98083.94;5408214;26;20014;-52
2024/04/17 08:06:03;;;;;;;11.38;5.95;;;;;;;8.43;100.00;98089.16;5396021;26;20044;-50
2024/04/17 08:08:28;;;;;;;8.68;5.95;;;;;;;8.26;100.00;98091.41;5395156;26;20019;-54
2024/04/17 08:10:54;;;;;;;9.32;5.95;;;;;;;8.54;100.00;98090.41;5398543;26;20000;-53
2024/04/17 08:13:19;;;;;;;8.35;5.53;;;;;;;9.08;100.00;98093.88;5409413;26;20064;-54
2024/04/17 08:15:49;;;;;;;8.88;6.28;;;;;;;10.36;100.00;98082.25;5406461;26;20439;-54
2024/04/17 08:18:15;;;;;;;7.80;5.22;;;;;;;11.59;100.00;98062.47;5407902;26;19997;-53
2024/04/17 08:20:40;;;;;;;7.68;4.75;;;;;;;12.41;100.00;98057.34;5402995;26;20026;-53
2024/04/17 08:23:06;;;;;;;6.65;4.30;;;;;;;12.68;100.00;98060.47;5393259;26;20347;-52
2024/04/17 08:25:31;;;;;;;6.75;4.20;;;;;;;12.55;100.00;98060.69;5401694;26;19995;-53
2024/04/17 08:27:57;;;;;;;5.93;4.10;;;;;;;12.35;100.00;98055.56;5404002;26;20075;-52
2024/04/17 08:30:22;;;;;;;6.53;3.80;;;;;;;12.20;100.00;98063.31;5394531;26;19999;-53
2024/04/17 08:32:47;;;;;;;5.28;3.60;;;;;;;11.97;100.00;98064.94;5365546;26;20055;-53
2024/04/17 08:35:13;;;;;;;5.60;3.83;;;;;;;12.31;100.00;98073.38;5404141;26;20011;-53
2024/04/17 08:37:38;;;;;;;7.82;4.10;;;;;;;12.31;100.00;98073.38;5404018;26;20011;-52
2024/04/17 08:40:05;;;;;;;8.50;4.38;;;;;;;12.57;100.00;98071.28;5401535;26;19994;-52
2024/04/17 08:42:34;;;;;;;7.78;3.72;;;;;;;12.44;100.00;98075.03;5395051;26;20004;-52
2024/04/17 08:45:02;;;;;;;;;;;;;;;11.46;100.00;98085.13;5361164;26;20060;-53
2024/04/17 08:47:28;;;;;;;6.18;2.95;;;;;;;10.61;100.00;98085.81;5405170;26;19947;-52
2024/04/17 08:49:54;;;;;;;3.65;2.67;;;;;;;9.71;100.00;98098.63;5399301;26;20012;-53
2024/04/17 08:52:20;;;;;;;3.88;2.72;;;;;;;8.85;100.00;98102.41;5399015;26;20435;-53
2024/04/17 08:54:47;;;;;;;3.80;2.90;;;;;;;8.46;100.00;98109.47;5401410;26;20015;-53
2024/04/17 08:57:13;;;;;;;5.65;3.35;;;;;;;8.16;100.00;98119.78;5406805;26;20340;-53
2024/04/17 08:59:38;;;;;;;6.40;3.72;;;;;;;8.03;100.00;98116.03;5393930;26;20047;-54
2024/04/17 09:02:12;;;;;;;5.93;3.60;;;;;;;8.06;100.00;98118.31;5366618;26;20000;-52
2024/04/17 09:04:40;;;;;;;7.47;3.75;;;;;;;8.01;100.00;98115.41;5404304;26;20045;-52
2024/04/17 09:07:08;;;;;;;5.90;3.90;;;;;;;8.20;100.00;98118.34;5403324;26;20031;-53
2024/04/17 09:09:34;;;;;;;6.50;3.83;;;;;;;8.30;100.00;98102.59;5409671;26;20014;-53
2024/04/17 09:14:38;;;;;;;9.65;3.97;;;;;;;9.70;100.00;98107.78;5417907;26;20081;-74
2024/04/17 09:17:03;;;;;;;6.95;4.60;;;;;;;10.25;100.00;98100.00;5424259;26;20003;-74
2024/04/17 09:19:29;;;;;;;7.75;4.00;;;;;;;10.35;100.00;98102.22;5393963;26;20056;-75
2024/04/17 09:21:54;;;;;;;5.13;3.53;;;;;;;10.48;100.00;98112.97;5428724;26;19992;-74
2024/04/17 09:24:20;;;;;;;7.35;3.53;;;;;;;10.19;100.00;98088.19;5396172;26;20021;-74
2024/04/17 09:26:45;;;;;;;4.93;2.88;;;;;;;10.16;100.00;98112.91;5441614;26;20001;-74
2024/04/17 09:29:14;;;;;;;6.40;3.08;;;;;;;9.56;100.00;98093.50;5395472;26;20385;-75
2024/04/17 09:31:42;;;;;;;5.43;3.05;;;;;;;9.04;100.00;98114.19;5439728;26;20019;-75
2024/04/17 09:34:07;;;;;;;5.40;3.00;;;;;;;8.75;100.00;98116.31;5427833;26;20010;-76
2024/04/17 09:36:33;;;;;;;6.20;3.40;;;;;;;8.45;100.00;98113.22;5417901;26;20007;-74
2024/04/17 09:38:58;;;;;;;9.68;3.40;;;;;;;8.04;100.00;98112.31;5394911;26;20011;-74
2024/04/17 09:41:25;;;;;;;11.75;3.50;;;;;;;7.82;100.00;98121.56;5418981;26;20008;-75
2024/04/17 09:43:56;;;;;;;6.20;3.70;;;;;;;7.67;100.00;98152.16;5390448;26;20001;-80
2024/04/17 09:46:22;;;;;;;4.25;2.50;;;;;;;7.51;100.00;98146.28;5398831;26;20030;-80
2024/04/17 09:48:50;;;;;;;4.93;2.70;;;;;;;6.99;100.00;98137.72;5436561;21;20007;-61
2024/04/17 09:51:20;;;;;;;9.98;2.63;;;;;;;6.90;100.00;98150.50;5401095;26;20011;-63
2024/04/17 09:54:01;;;;;;;4.50;2.60;;;;;;;6.55;100.00;98154.97;5383954;26;20003;-60
2024/04/17 09:56:27;;;;;;;5.25;2.47;;;;;;;6.53;100.00;98157.03;5411925;26;20007;-60
2024/04/17 09:58:53;;;;;;;5.65;2.85;;;;;;;6.46;100.00;98153.44;5413453;26;20075;-65
2024/04/17 10:01:19;;;;;;;4.30;2.33;;;;;;;6.44;100.00;98152.78;5423367;26;20011;-66
2024/04/17 10:03:46;;;;;;;4.30;2.10;;;;;;;6.40;100.00;98159.59;5421822;26;21246;-66
2024/04/17 10:06:14;;;;;;;6.35;2.38;;;;;;;6.62;100.00;98160.41;5416673;26;20011;-60
2024/04/17 10:08:42;;;;;;;6.57;2.15;;;;;;;6.88;100.00;98154.41;5416544;26;20045;-63
2024/04/17 10:11:08;;;;;;;3.63;2.10;;;;;;;7.21;100.00;98146.56;5417962;26;20011;-65
2024/04/17 10:13:35;;;;;;;3.85;2.25;;;;;;;7.76;100.00;98138.56;5421617;26;20000;-65
2024/04/17 10:16:01;;;;;;;3.53;2.35;;;;;;;8.23;100.00;98137.63;5414543;26;20003;-65
2024/04/17 10:18:27;;;;;;;5.15;2.55;;;;;;;8.67;100.00;98130.00;5424836;26;20072;-65
2024/04/17 10:20:55;;;;;;;3.40;2.50;;;;;;;9.27;100.00;98138.03;5415464;26;20010;-66
2024/04/17 10:23:20;;;;;;;5.13;2.53;;;;;;;9.68;100.00;98135.00;5412605;26;20047;-66
2024/04/17 10:25:54;;;;;;;7.88;3.03;;;;;;;9.95;100.00;98122.19;5409485;26;20427;-61
2024/04/17 10:28:20;;;;;;;5.20;2.75;;;;;;;10.39;100.00;98133.19;5417684;26;20455;-60
2024/04/17 10:30:49;;;;;;;5.00;2.80;;;;;;;11.58;100.00;98118.56;5418522;26;20010;-60
2024/04/17 10:33:30;;;;;;;4.90;2.47;;;;;;;13.21;100.00;98110.28;5418225;26;20006;-61
2024/04/17 10:35:57;;;;;;;4.20;2.28;;;;;;;15.67;100.00;98101.03;5417060;26;20023;-61
2024/04/17 10:38:27;;;;;;;3.13;1.80;;;;;;;18.85;100.00;98092.97;5415272;26;20082;-61
2024/04/17 10:40:54;;;;;;;3.92;2.17;;;;;;;20.40;72.69;98086.72;5417674;26;20014;-64
2024/04/17 10:43:21;;;;;;;4.80;1.60;;;;;;;19.39;71.06;98086.88;5384723;26;20039;-61
2024/04/17 10:45:57;;;;;;;4.63;1.98;;;;;;;16.99;100.00;98087.09;5408283;26;20021;-60
2024/04/17 10:48:24;;;;;;;6.93;2.25;;;;;;;14.96;100.00;98106.28;5413831;26;20000;-61
2024/04/17 10:50:50;;;;;;;5.95;2.25;;;;;;;13.91;100.00;98101.19;5415536;26;19999;-60
2024/04/17 10:53:18;;;;;;;7.07;2.50;;;;;;;14.25;100.00;98093.94;5423494;26;20000;-61
2024/04/17 10:55:43;;;;;;;5.30;1.90;;;;;;;15.31;100.00;98087.72;5403591;26;20447;-60
2024/04/17 10:58:12;;;;;;;5.65;2.08;;;;;;;16.86;100.00;98080.16;5415388;26;20031;-60
2024/04/17 11:00:37;;;;;;;4.03;1.70;;;;;;;20.58;94.17;98069.56;5413158;26;20073;-60
2024/04/17 11:03:06;;;;;;;4.88;1.88;;;;;;;20.62;80.01;98072.56;5408477;26;20780;-61
2024/04/17 11:05:33;;;;;;;4.47;1.30;;;;;;;18.24;83.66;98082.75;5416942;26;20013;-68
2024/04/17 11:07:58;;;;;;;3.97;1.50;;;;;;;15.80;100.00;98092.50;5423034;26;20489;-61
2024/04/17 11:10:24;;;;;;;4.70;1.50;;;;;;;14.57;100.00;98084.44;5419401;26;20049;-62
2024/04/17 11:12:50;;;;;;;3.75;1.40;;;;;;;13.30;100.00;98105.31;5382211;26;20014;-61
2024/04/17 11:15:16;;;;;;;4.20;1.30;;;;;;;12.80;100.00;98094.91;5406711;26;20076;-61
2024/04/17 11:17:42;;;;;;;7.03;1.80;;;;;;;12.35;100.00;98106.28;5404885;26;19999;-60
2024/04/17 11:20:10;;;;;;;6.07;1.70;;;;;;;12.54;100.00;98090.75;5410645;26;20011;-60
2024/04/17 11:22:35;;;;;;;5.07;1.63;;;;;;;12.87;100.00;98082.06;5384561;26;20045;-60
2024/04/17 11:25:04;;;;;;;3.53;1.73;;;;;;;13.36;100.00;98085.34;5423840;26;19999;-60
2024/04/17 11:27:30;;;;;;;5.72;1.67;;;;;;;14.11;100.00;98087.13;5409439;26;20016;-61